Time;durP1;ratioP1;P1;durP2;ratioP2;P2;SDS_P1;SDS_P2;PMS_P1;PMS_P2;Temp;Humidity;BMP_temperature;BMP_pressure;BME280_temperature;BME280_humidity;BME280_pressure;Samples;Min_cycle;Max_cycle;Signal;HPM_P1;HPM_P2
2023/01/05 00:01:04;;;;;;;9.18;5.70;;;13.20;99.90;;;;;;4592070;19;20012;-29
2023/01/05 00:02:35;;;;;;;7.77;5.27;;;13.10;99.90;;;;;;4590918;19;20078;-29
2023/01/05 00:04:06;;;;;;;6.70;5.28;;;13.20;99.90;;;;;;4591777;19;20017;-29
2023/01/05 00:05:37;;;;;;;6.68;5.38;;;13.10;99.90;;;;;;4591111;19;20023;-29
2023/01/05 00:07:09;;;;;;;8.00;6.22;;;13.10;99.90;;;;;;4590836;19;20014;-29
2023/01/05 00:08:40;;;;;;;5.90;4.93;;;13.20;99.90;;;;;;4591562;19;20014;-29
2023/01/05 00:22:29;;;;;;;;;;;13.10;99.90;;;;;;4591581;19;20571;-29
2023/01/05 00:23:04;;;;;;;3.17;1.10;;;13.20;99.90;;;;;;4591691;19;20011;-29
2023/01/05 00:24:35;;;;;;;2.95;1.35;;;13.20;99.90;;;;;;4591474;19;20385;-29
2023/01/05 00:26:07;;;;;;;5.10;2.30;;;13.10;99.90;;;;;;4591965;19;20017;-29
2023/01/05 00:27:41;;;;;;;4.15;1.92;;;13.10;99.90;;;;;;4591549;19;20346;-29
2023/01/05 00:29:13;;;;;;;4.43;2.20;;;13.20;99.90;;;;;;4591344;19;20014;-29
2023/01/05 00:30:45;;;;;;;3.22;1.80;;;13.10;99.90;;;;;;4590352;19;20070;-29
2023/01/05 00:32:16;;;;;;;4.73;2.60;;;13.10;99.90;;;;;;4591408;19;20014;-29
2023/01/05 00:33:47;;;;;;;5.70;3.95;;;13.10;99.90;;;;;;4589920;19;20472;-29
2023/01/05 00:35:19;;;;;;;17.55;10.32;;;13.20;99.90;;;;;;4591392;19;20014;-29
2023/01/05 00:36:50;;;;;;;17.85;11.68;;;13.10;99.90;;;;;;4591527;19;20401;-29
2023/01/05 00:38:21;;;;;;;9.50;5.65;;;13.20;99.90;;;;;;4591687;19;20010;-29
2023/01/05 00:39:52;;;;;;;7.97;4.07;;;13.10;99.90;;;;;;4591320;19;20014;-29
2023/01/05 00:41:23;;;;;;;5.95;2.72;;;13.10;99.90;;;;;;4591413;19;20015;-29
2023/01/05 00:42:55;;;;;;;3.75;2.00;;;13.20;99.90;;;;;;4591490;19;20006;-29
2023/01/05 00:44:26;;;;;;;5.03;2.00;;;13.10;99.90;;;;;;4591086;19;20497;-29
2023/01/05 00:45:57;;;;;;;4.50;1.90;;;13.10;99.90;;;;;;4591016;19;20031;-29
2023/01/05 00:47:28;;;;;;;3.88;1.70;;;13.20;99.90;;;;;;4591049;19;20018;-29
2023/01/05 00:49:00;;;;;;;3.58;2.00;;;13.10;99.90;;;;;;4591482;19;20351;-29
2023/01/05 00:50:31;;;;;;;4.03;2.22;;;13.10;99.90;;;;;;4590914;19;20049;-29
2023/01/05 00:52:02;;;;;;;5.03;2.38;;;13.10;99.90;;;;;;4590908;19;20500;-29
2023/01/05 00:53:34;;;;;;;3.25;2.15;;;13.20;99.90;;;;;;4588622;19;20484;-29
2023/01/05 00:55:05;;;;;;;4.28;2.85;;;13.20;99.90;;;;;;4590706;19;20084;-29
2023/01/05 00:56:36;;;;;;;4.93;2.95;;;13.10;99.90;;;;;;4589706;19;20058;-29
2023/01/05 00:58:08;;;;;;;4.85;2.83;;;13.20;99.90;;;;;;4590362;19;20077;-29
2023/01/05 00:59:39;;;;;;;5.00;3.17;;;13.20;99.90;;;;;;4591104;19;20018;-29
2023/01/05 01:01:11;;;;;;;4.93;3.17;;;13.10;99.90;;;;;;4590031;19;20011;-29
2023/01/05 01:02:42;;;;;;;4.72;3.25;;;13.20;99.90;;;;;;4589641;19;20066;-29
2023/01/05 01:04:14;;;;;;;5.35;3.00;;;13.20;99.90;;;;;;4590594;19;20014;-29
2023/01/05 01:05:45;;;;;;;4.95;3.80;;;13.20;99.90;;;;;;4590753;19;20035;-29
2023/01/05 01:07:16;;;;;;;5.63;3.45;;;13.20;99.90;;;;;;4589358;19;20078;-29
2023/01/05 01:08:47;;;;;;;4.35;3.95;;;13.20;99.90;;;;;;4590272;19;20016;-29
2023/01/05 01:10:18;;;;;;;5.65;3.83;;;13.10;99.90;;;;;;4588363;19;20011;-29
2023/01/05 01:11:50;;;;;;;5.35;3.65;;;13.10;99.90;;;;;;4588737;19;20094;-29
2023/01/05 01:13:23;;;;;;;4.60;3.85;;;13.20;99.90;;;;;;4587429;19;20015;-29
2023/01/05 01:14:54;;;;;;;5.97;4.25;;;13.20;99.90;;;;;;4588226;19;20026;-29
2023/01/05 01:16:25;;;;;;;5.10;4.05;;;13.10;99.90;;;;;;4588456;19;20086;-29
2023/01/05 01:17:57;;;;;;;4.85;3.80;;;13.20;99.90;;;;;;4587051;19;20018;-29
2023/01/05 01:19:28;;;;;;;5.25;3.85;;;13.10;99.90;;;;;;4588167;19;20018;-29
2023/01/05 01:20:59;;;;;;;5.60;3.92;;;13.20;99.90;;;;;;4588349;19;20018;-29
2023/01/05 01:22:30;;;;;;;5.28;3.83;;;13.20;99.90;;;;;;4588595;19;20513;-29
2023/01/05 01:24:02;;;;;;;4.53;3.60;;;13.20;99.90;;;;;;4588590;19;20010;-29
2023/01/05 01:25:33;;;;;;;5.55;4.05;;;13.20;99.90;;;;;;4588035;19;20044;-29
2023/01/05 01:27:04;;;;;;;5.20;3.53;;;13.20;99.90;;;;;;4588249;19;20026;-29
2023/01/05 01:28:35;;;;;;;5.93;3.80;;;13.20;99.90;;;;;;4588286;19;20062;-29
2023/01/05 01:30:08;;;;;;;5.13;3.20;;;13.20;99.90;;;;;;4588032;19;20015;-29
2023/01/05 01:31:39;;;;;;;3.80;2.67;;;13.20;99.90;;;;;;4587971;19;20074;-29
2023/01/05 01:33:10;;;;;;;4.88;3.05;;;13.20;99.90;;;;;;4587682;19;20015;-29
2023/01/05 01:34:41;;;;;;;4.72;3.25;;;13.20;99.90;;;;;;4588153;19;20006;-29
2023/01/05 01:36:12;;;;;;;4.43;2.85;;;13.10;99.90;;;;;;4587987;19;20581;-29
2023/01/05 01:37:43;;;;;;;5.43;2.55;;;13.20;99.90;;;;;;4588093;19;20010;-29
2023/01/05 01:39:15;;;;;;;4.15;1.95;;;13.10;99.90;;;;;;4588182;19;20443;-29
2023/01/05 01:40:46;;;;;;;3.72;1.98;;;13.20;99.90;;;;;;4587962;19;20329;-29
2023/01/05 01:42:17;;;;;;;3.38;2.10;;;13.20;99.90;;;;;;4589668;19;20035;-29
2023/01/05 01:43:50;;;;;;;3.35;2.10;;;13.10;99.90;;;;;;4588916;19;20542;-29
2023/01/05 01:45:23;;;;;;;3.10;2.08;;;13.20;99.90;;;;;;4589026;19;20010;-29
2023/01/05 01:46:54;;;;;;;3.40;2.20;;;13.20;99.90;;;;;;4589412;19;20474;-29
2023/01/05 01:48:25;;;;;;;3.05;2.17;;;13.20;99.90;;;;;;4589981;19;20547;-29
2023/01/05 01:49:58;;;;;;;4.03;2.67;;;13.20;99.90;;;;;;4589945;19;20010;-29
2023/01/05 01:51:36;;;;;;;4.63;2.97;;;13.20;99.90;;;;;;4588937;19;20014;-28
2023/01/05 01:53:16;;;;;;;4.07;2.90;;;13.20;99.90;;;;;;4588143;19;20104;-29
2023/01/05 01:54:47;;;;;;;6.23;3.80;;;13.10;99.90;;;;;;4588728;19;20336;-29
2023/01/05 01:56:20;;;;;;;6.47;4.03;;;13.20;99.90;;;;;;4588573;19;20006;-29
2023/01/05 01:57:51;;;;;;;6.23;4.37;;;13.20;99.90;;;;;;4588523;19;20517;-29
2023/01/05 01:59:23;;;;;;;6.20;3.50;;;13.20;99.90;;;;;;4587822;19;20014;-29
2023/01/05 02:00:54;;;;;;;5.93;3.50;;;13.20;99.90;;;;;;4588625;19;20014;-29
2023/01/05 02:02:25;;;;;;;8.15;3.88;;;13.20;99.90;;;;;;4589372;19;20010;-29
2023/01/05 02:03:57;;;;;;;6.53;4.25;;;13.20;99.90;;;;;;4588402;19;20002;-29
2023/01/05 02:05:29;;;;;;;5.70;3.80;;;13.20;99.90;;;;;;4588302;19;20015;-29
2023/01/05 02:07:00;;;;;;;5.60;3.27;;;13.20;99.90;;;;;;4588568;19;20039;-29
2023/01/05 02:08:31;;;;;;;7.15;3.40;;;13.20;99.90;;;;;;4588382;19;20578;-29
2023/01/05 02:10:03;;;;;;;4.78;2.88;;;13.20;99.90;;;;;;4589474;19;20341;-29
2023/01/05 02:11:37;;;;;;;;;;;13.20;99.90;;;;;;4589153;19;20493;-29
2023/01/05 02:13:23;;;;;;;3.78;2.10;;;13.20;99.90;;;;;;4588514;19;19919;-29
2023/01/05 02:15:06;;;;;;;3.90;2.40;;;13.20;99.90;;;;;;4588237;19;20022;-29
2023/01/05 02:17:11;;;;;;;4.28;2.28;;;13.20;99.90;;;;;;4588849;19;20015;-29
2023/01/05 02:19:12;;;;;;;4.53;2.70;;;13.20;99.90;;;;;;4588735;19;20018;-29
2023/01/05 02:21:24;;;;;;;2.63;1.63;;;13.20;99.90;;;;;;4588499;19;20014;-29
2023/01/05 02:23:16;;;;;;;;;;;13.30;99.90;;;;;;4589216;19;20010;-29
2023/01/05 02:25:01;;;;;;;2.15;1.45;;;13.30;99.90;;;;;;4589275;19;20242;-29
2023/01/05 02:26:51;;;;;;;2.92;1.27;;;13.30;99.90;;;;;;4588197;19;20599;-29
2023/01/05 02:28:51;;;;;;;3.05;1.67;;;13.30;99.90;;;;;;4589022;19;20081;-29
2023/01/05 02:30:59;;;;;;;2.03;1.38;;;13.30;99.90;;;;;;4588427;19;20010;-29
2023/01/05 02:32:42;;;;;;;3.27;1.80;;;13.30;99.90;;;;;;4588962;19;20380;-29
2023/01/05 02:34:16;;;;;;;4.50;1.67;;;13.20;99.90;;;;;;4588007;19;20029;-29
2023/01/05 02:35:51;;;;;;;2.97;1.60;;;13.20;99.90;;;;;;4588063;19;20018;-29
2023/01/05 02:37:28;;;;;;;3.00;1.55;;;13.20;99.90;;;;;;4588819;19;20079;-29
2023/01/05 02:39:16;;;;;;;4.20;1.77;;;13.30;99.90;;;;;;4588277;19;20003;-29
2023/01/05 02:40:49;;;;;;;2.83;1.30;;;13.30;99.90;;;;;;4587967;19;20022;-29
2023/01/05 02:42:22;;;;;;;2.23;1.40;;;13.20;99.90;;;;;;4587949;19;20018;-29
2023/01/05 02:43:55;;;;;;;2.93;1.33;;;13.20;99.90;;;;;;4587917;19;20070;-29
2023/01/05 02:45:26;;;;;;;2.53;0.90;;;13.20;99.90;;;;;;4587653;19;20029;-29
2023/01/05 02:47:05;;;;;;;3.42;1.45;;;13.20;99.90;;;;;;4588619;19;20011;-29
2023/01/05 02:48:37;;;;;;;3.15;1.30;;;13.20;99.90;;;;;;4588661;19;20015;-29
2023/01/05 02:50:16;;;;;;;2.53;1.33;;;13.20;99.90;;;;;;4587606;19;20038;-29
2023/01/05 02:51:49;;;;;;;3.13;1.20;;;13.20;99.90;;;;;;4587955;19;20015;-29
2023/01/05 02:53:26;;;;;;;3.70;1.13;;;13.20;99.90;;;;;;4586855;19;20126;-29
2023/01/05 02:54:58;;;;;;;3.70;1.23;;;13.20;99.90;;;;;;4587586;19;20347;-29
2023/01/05 02:56:39;;;;;;;3.87;1.37;;;13.20;99.90;;;;;;4587524;19;20599;-29
2023/01/05 02:58:16;;;;;;;3.22;1.30;;;13.20;99.90;;;;;;4587970;19;20046;-29
2023/01/05 02:59:49;;;;;;;3.07;1.33;;;13.20;99.90;;;;;;4587679;19;20006;-29
2023/01/05 03:01:54;;;;;;;2.17;1.10;;;13.20;99.90;;;;;;4588245;19;20359;-29
2023/01/05 03:03:32;;;;;;;3.70;1.65;;;13.20;99.90;;;;;;4586358;19;20014;-29
2023/01/05 03:05:06;;;;;;;2.13;1.20;;;13.20;99.90;;;;;;4586185;19;20014;-29
2023/01/05 03:06:55;;;;;;;2.70;1.17;;;13.20;99.90;;;;;;4586216;19;20529;-29
2023/01/05 03:08:27;;;;;;;1.70;0.90;;;13.20;99.90;;;;;;4586601;19;20023;-29
2023/01/05 03:13:39;;;;;;;2.25;1.15;;;13.20;99.90;;;;;;4586156;19;20062;-29
2023/01/05 03:14:15;;;;;;;2.63;1.10;;;13.20;99.90;;;;;;4589216;19;20014;-29
2023/01/05 03:15:46;;;;;;;2.67;1.30;;;13.20;99.90;;;;;;4590677;19;20018;-29
2023/01/05 03:17:22;;;;;;;2.85;1.45;;;13.20;99.90;;;;;;4589524;19;20082;-29
2023/01/05 03:20:45;;;;;;;3.97;2.45;;;13.20;99.90;;;;;;4590810;19;20015;-29
2023/01/05 03:35:30;;;;;;;3.00;1.63;;;13.20;99.90;;;;;;4590340;19;20018;-29
2023/01/05 03:37:11;;;;;;;2.88;1.40;;;13.20;99.90;;;;;;4590347;19;20014;-29
2023/01/05 03:38:43;;;;;;;2.30;1.10;;;13.10;99.90;;;;;;4590284;19;20070;-29
2023/01/05 03:40:18;;;;;;;2.35;1.10;;;13.20;99.90;;;;;;4591339;19;20023;-29
2023/01/05 03:41:49;;;;;;;1.88;1.10;;;13.20;99.90;;;;;;4591630;19;20011;-29
2023/01/05 03:43:20;;;;;;;1.70;0.80;;;13.20;99.90;;;;;;4591420;19;20019;-29
2023/01/05 03:44:51;;;;;;;2.50;1.08;;;13.10;99.90;;;;;;4592220;19;20484;-29
2023/01/05 03:46:22;;;;;;;2.17;1.02;;;13.20;99.90;;;;;;4589963;19;20167;-29
2023/01/05 03:47:54;;;;;;;2.25;1.05;;;13.20;99.90;;;;;;4590385;19;20134;-29
2023/01/05 03:49:26;;;;;;;1.90;1.07;;;13.20;99.90;;;;;;4590234;19;20015;-29
2023/01/05 03:50:57;;;;;;;1.35;0.70;;;13.20;99.90;;;;;;4590112;19;20122;-29
2023/01/05 03:52:28;;;;;;;1.85;1.08;;;13.20;99.90;;;;;;4590444;19;20028;-29
2023/01/05 03:53:59;;;;;;;2.55;1.33;;;13.10;99.90;;;;;;4588500;19;20375;-29
2023/01/05 03:55:31;;;;;;;6.72;3.60;;;13.20;99.90;;;;;;4589932;19;20022;-29
2023/01/05 03:57:02;;;;;;;7.03;4.45;;;13.20;99.90;;;;;;4590104;19;20039;-29
2023/01/05 03:58:33;;;;;;;6.00;3.90;;;13.20;99.90;;;;;;4590319;19;20025;-29
2023/01/05 04:00:09;;;;;;;3.47;1.80;;;13.10;99.90;;;;;;4589999;19;20006;-29
2023/01/05 04:01:40;;;;;;;1.80;1.30;;;13.10;99.90;;;;;;4589969;19;20070;-29
2023/01/05 04:03:11;;;;;;;3.65;1.30;;;13.10;99.90;;;;;;4589870;19;20050;-29
2023/01/05 04:04:42;;;;;;;3.38;1.25;;;13.10;99.90;;;;;;4590129;19;20014;-29
2023/01/05 04:06:16;;;;;;;2.27;0.90;;;13.10;99.90;;;;;;4589866;19;20511;-29
2023/01/05 04:07:48;;;;;;;2.03;1.00;;;13.10;99.90;;;;;;4589644;19;20122;-29
2023/01/05 04:09:19;;;;;;;1.20;0.60;;;13.10;99.90;;;;;;4589960;19;20453;-29
2023/01/05 04:10:53;;;;;;;1.40;0.80;;;13.10;99.90;;;;;;4589569;19;20035;-29
2023/01/05 04:12:24;;;;;;;1.70;0.70;;;13.10;99.90;;;;;;4589591;19;20096;-29
2023/01/05 04:13:55;;;;;;;2.22;1.40;;;13.10;99.90;;;;;;4588411;19;20003;-29
2023/01/05 04:15:26;;;;;;;2.80;1.20;;;13.10;99.90;;;;;;4589902;19;20019;-29
2023/01/05 04:16:58;;;;;;;3.33;1.40;;;13.10;99.90;;;;;;4589478;19;20066;-29
2023/01/05 04:18:29;;;;;;;2.13;1.13;;;13.20;99.90;;;;;;4589203;19;20083;-29
2023/01/05 04:20:00;;;;;;;2.72;1.27;;;13.20;99.90;;;;;;4591439;19;20010;-29
2023/01/05 04:21:32;;;;;;;1.98;1.13;;;13.20;99.90;;;;;;4591145;19;20023;-29
2023/01/05 04:23:03;;;;;;;2.78;1.08;;;13.20;99.90;;;;;;4591647;19;20024;-29
2023/01/05 04:24:34;;;;;;;3.17;1.42;;;13.20;99.90;;;;;;4591586;19;20010;-29
2023/01/05 04:26:05;;;;;;;2.42;1.17;;;13.20;99.90;;;;;;4591703;19;20099;-29
2023/01/05 04:27:36;;;;;;;1.50;0.93;;;13.20;99.90;;;;;;4591867;19;20021;-29
2023/01/05 04:29:09;;;;;;;4.88;1.30;;;13.20;99.90;;;;;;4591563;19;20014;-29
2023/01/05 04:30:43;;;;;;;2.55;1.20;;;13.20;99.90;;;;;;4590520;19;20108;-29
2023/01/05 04:32:14;;;;;;;2.53;1.37;;;13.20;99.90;;;;;;4590133;19;20406;-29
2023/01/05 04:33:45;;;;;;;2.42;1.13;;;13.10;99.90;;;;;;4589869;19;20014;-29
2023/01/05 04:35:17;;;;;;;3.20;1.80;;;13.20;99.90;;;;;;4590335;19;20106;-29
2023/01/05 04:36:48;;;;;;;3.75;1.40;;;13.20;99.90;;;;;;4591106;19;20017;-29
2023/01/05 04:38:19;;;;;;;2.42;1.30;;;13.20;99.90;;;;;;4591316;19;20006;-29
2023/01/05 04:39:51;;;;;;;2.20;1.00;;;13.20;99.90;;;;;;4591382;19;20006;-29
2023/01/05 04:41:22;;;;;;;3.08;1.13;;;13.20;99.90;;;;;;4591101;19;20360;-29
2023/01/05 04:42:53;;;;;;;3.63;1.33;;;13.10;99.90;;;;;;4592572;19;20015;-28
2023/01/05 04:44:24;;;;;;;3.75;1.58;;;13.20;99.90;;;;;;4592862;19;20377;-28
2023/01/05 04:45:55;;;;;;;4.45;3.00;;;13.20;99.90;;;;;;4590807;19;20014;-28
2023/01/05 04:47:26;;;;;;;5.88;3.88;;;13.20;99.90;;;;;;4590623;19;20018;-28
2023/01/05 04:48:58;;;;;;;5.43;3.20;;;13.30;99.90;;;;;;4590675;19;20077;-28
2023/01/05 04:50:29;;;;;;;2.97;1.83;;;13.40;99.90;;;;;;4591145;19;20346;-29
2023/01/05 04:52:00;;;;;;;4.25;2.00;;;13.50;99.90;;;;;;4590513;19;20011;-31
2023/01/05 04:53:32;;;;;;;3.90;2.13;;;13.60;99.90;;;;;;4589871;19;20029;-29
2023/01/05 04:55:04;;;;;;;5.25;1.50;;;13.70;99.90;;;;;;4590052;19;20070;-27
2023/01/05 04:56:35;;;;;;;3.70;2.15;;;13.70;99.90;;;;;;4589896;19;20013;-28
2023/01/05 04:58:06;;;;;;;3.20;1.38;;;13.70;99.90;;;;;;4590653;19;20046;-30
2023/01/05 04:59:38;;;;;;;2.65;1.40;;;13.70;99.90;;;;;;4591111;19;20010;-29
2023/01/05 05:01:09;;;;;;;2.70;1.25;;;13.70;99.90;;;;;;4591647;19;20031;-29
2023/01/05 05:02:40;;;;;;;2.85;1.25;;;13.70;99.90;;;;;;4591600;19;20031;-29
2023/01/05 05:06:23;;;;;;;3.85;1.60;;;13.70;99.90;;;;;;4609230;19;20752;-28
2023/01/05 05:07:54;;;;;;;3.67;1.70;;;13.70;99.90;;;;;;4609987;19;20089;-31
2023/01/05 05:09:25;;;;;;;2.70;1.70;;;13.70;99.90;;;;;;4611918;19;20040;-35
2023/01/05 05:11:15;;;;;;;3.00;1.83;;;13.70;99.90;;;;;;4613582;19;20006;-30
2023/01/05 05:12:47;;;;;;;6.00;2.00;;;13.70;99.90;;;;;;4612429;19;20669;-29
2023/01/05 05:14:18;;;;;;;4.60;1.67;;;13.80;99.90;;;;;;4613148;19;20337;-31
2023/01/05 05:15:49;;;;;;;4.53;2.22;;;13.70;99.90;;;;;;4612357;19;20467;-32
2023/01/05 05:17:21;;;;;;;3.55;1.63;;;13.60;99.90;;;;;;4611458;19;20078;-33
2023/01/05 05:18:52;;;;;;;5.18;1.42;;;13.70;99.90;;;;;;4613222;19;20018;-32
2023/01/05 05:20:23;;;;;;;3.70;1.70;;;13.90;99.90;;;;;;4611704;19;20018;-32
2023/01/05 05:21:54;;;;;;;2.67;1.42;;;14.20;99.90;;;;;;4610562;19;20079;-31
2023/01/05 05:23:25;;;;;;;3.92;1.50;;;14.10;99.90;;;;;;4612530;19;20033;-29
2023/01/05 05:24:57;;;;;;;3.15;1.27;;;14.00;99.90;;;;;;4610838;19;20018;-29
2023/01/05 05:26:28;;;;;;;2.88;1.10;;;13.90;99.90;;;;;;4611084;19;20030;-31
2023/01/05 05:27:59;;;;;;;3.10;1.50;;;13.90;99.90;;;;;;4613384;19;20009;-31
2023/01/05 05:29:30;;;;;;;4.20;1.40;;;13.80;99.90;;;;;;4611544;19;20014;-30
2023/01/05 05:31:02;;;;;;;2.97;1.45;;;13.80;99.90;;;;;;4611958;19;20014;-33
2023/01/05 05:32:34;;;;;;;3.38;1.30;;;13.70;99.90;;;;;;4611090;19;20035;-31
2023/01/05 05:34:05;;;;;;;3.28;1.65;;;13.70;99.90;;;;;;4611545;19;20007;-33
2023/01/05 05:35:36;;;;;;;2.15;1.70;;;13.60;99.90;;;;;;4609842;19;20014;-27
2023/01/05 05:37:08;;;;;;;4.82;1.38;;;13.50;99.90;;;;;;4609341;19;20483;-30
2023/01/05 05:38:39;;;;;;;3.28;1.20;;;13.50;99.90;;;;;;4612063;19;20031;-32
2023/01/05 05:40:11;;;;;;;2.85;1.48;;;13.50;99.90;;;;;;4612030;19;20379;-34
2023/01/05 05:41:43;;;;;;;3.55;1.45;;;13.50;99.90;;;;;;4611526;19;20014;-33
2023/01/05 05:43:15;;;;;;;3.08;1.30;;;13.50;99.90;;;;;;4610433;19;20416;-28
2023/01/05 05:44:47;;;;;;;3.80;2.08;;;13.50;99.90;;;;;;4611000;19;20006;-31
2023/01/05 05:46:19;;;;;;;4.70;1.95;;;13.60;99.90;;;;;;4608806;19;20022;-29
2023/01/05 05:47:50;;;;;;;3.70;1.60;;;13.50;99.90;;;;;;4611540;19;20010;-30
2023/01/05 05:49:22;;;;;;;3.47;1.35;;;13.50;99.90;;;;;;4610968;19;20522;-34
2023/01/05 05:51:12;;;;;;;3.15;1.27;;;13.50;99.90;;;;;;4611456;19;20014;-34
2023/01/05 05:52:44;;;;;;;3.92;1.92;;;13.60;99.90;;;;;;4611344;19;20039;-34
2023/01/05 05:54:16;;;;;;;3.72;1.10;;;13.60;99.90;;;;;;4610661;19;20014;-31
2023/01/05 05:55:50;;;;;;;4.07;1.48;;;13.60;99.90;;;;;;4610282;19;20030;-32
2023/01/05 05:57:22;;;;;;;3.70;1.40;;;13.60;99.90;;;;;;4610034;19;20018;-29
2023/01/05 05:58:54;;;;;;;3.90;1.70;;;13.60;99.90;;;;;;4611815;19;20025;-34
2023/01/05 06:00:25;;;;;;;2.47;1.10;;;13.70;99.90;;;;;;4609428;19;20017;-29
2023/01/05 06:01:57;;;;;;;3.10;1.48;;;13.70;99.90;;;;;;4611461;19;20491;-29
2023/01/05 06:03:28;;;;;;;5.43;1.60;;;13.70;99.90;;;;;;4610430;19;20077;-31
2023/01/05 06:04:59;;;;;;;3.92;1.92;;;13.80;99.90;;;;;;4609879;19;20230;-30
2023/01/05 06:06:31;;;;;;;3.15;1.70;;;13.70;99.90;;;;;;4607437;19;20018;-30
2023/01/05 06:08:02;;;;;;;3.92;1.40;;;13.70;99.90;;;;;;4609901;19;20014;-29
2023/01/05 06:09:33;;;;;;;3.55;1.65;;;13.70;99.90;;;;;;4610494;19;20437;-35
2023/01/05 06:11:04;;;;;;;3.83;1.58;;;13.70;99.90;;;;;;4610186;19;20014;-30
2023/01/05 06:12:36;;;;;;;4.03;1.40;;;13.70;99.90;;;;;;4609959;19;20480;-30
2023/01/05 06:14:07;;;;;;;4.18;1.75;;;13.70;99.90;;;;;;4611843;19;20017;-29
2023/01/05 06:15:38;;;;;;;4.90;2.17;;;13.70;99.90;;;;;;4607692;19;20097;-30
2023/01/05 06:17:10;;;;;;;5.28;2.30;;;13.60;99.90;;;;;;4591139;19;20019;-30
2023/01/05 06:18:41;;;;;;;4.32;1.77;;;13.60;99.90;;;;;;4592808;19;20024;-34
2023/01/05 06:20:12;;;;;;;4.88;2.08;;;13.60;99.90;;;;;;4590780;19;20029;-30
2023/01/05 06:21:44;;;;;;;5.43;1.90;;;13.50;99.90;;;;;;4593210;19;20031;-33
2023/01/05 06:23:15;;;;;;;4.05;1.85;;;13.50;99.90;;;;;;4592422;19;20715;-31
2023/01/05 06:24:46;;;;;;;6.20;2.08;;;13.60;99.90;;;;;;4589832;19;20030;-31
2023/01/05 06:26:18;;;;;;;5.15;1.60;;;13.50;99.90;;;;;;4591097;19;20085;-31
2023/01/05 06:27:49;;;;;;;;;;;13.50;99.90;;;;;;4593212;19;20018;-34
2023/01/05 06:29:20;;;;;;;4.60;1.80;;;13.50;99.90;;;;;;4593242;19;19986;-31
2023/01/05 06:30:52;;;;;;;3.10;1.40;;;13.40;99.90;;;;;;4592585;19;20010;-31
2023/01/05 06:32:23;;;;;;;4.45;1.77;;;13.40;99.90;;;;;;4591973;19;20006;-33
2023/01/05 06:33:54;;;;;;;4.20;1.33;;;13.40;99.90;;;;;;4593033;19;20014;-34
2023/01/05 06:35:25;;;;;;;3.58;1.02;;;13.30;99.90;;;;;;4592770;19;20037;-29
2023/01/05 06:37:11;;;;;;;4.17;1.07;;;13.30;99.90;;;;;;4590534;19;20026;-31
2023/01/05 06:38:42;;;;;;;2.95;1.65;;;13.40;99.90;;;;;;4594514;19;20034;-33
2023/01/05 06:40:14;;;;;;;4.35;1.80;;;13.40;99.90;;;;;;4591661;19;20022;-32
2023/01/05 06:41:45;;;;;;;3.58;1.60;;;13.50;99.90;;;;;;4593185;19;20010;-33
2023/01/05 06:43:16;;;;;;;2.38;1.40;;;13.50;99.90;;;;;;4594883;19;20510;-31
2023/01/05 06:44:48;;;;;;;3.80;1.48;;;13.50;99.90;;;;;;4592945;19;20317;-30
2023/01/05 06:46:19;;;;;;;3.17;1.27;;;13.40;99.90;;;;;;4591335;19;20010;-30
2023/01/05 06:47:50;;;;;;;4.45;2.13;;;13.30;99.90;;;;;;4591643;19;20013;-29
2023/01/05 06:49:21;;;;;;;5.18;1.88;;;13.40;99.90;;;;;;4592777;19;20011;-30
2023/01/05 06:50:52;;;;;;;3.40;1.35;;;13.30;99.90;;;;;;4593079;19;20014;-30
2023/01/05 06:52:23;;;;;;;4.85;1.40;;;13.20;99.90;;;;;;4593403;19;20019;-31
2023/01/05 06:53:55;;;;;;;4.05;1.50;;;13.20;99.90;;;;;;4591249;19;20580;-30
2023/01/05 06:55:26;;;;;;;9.68;4.60;;;13.20;99.90;;;;;;4592170;19;20032;-32
2023/01/05 06:56:57;;;;;;;6.45;3.25;;;13.10;99.90;;;;;;4592405;19;20033;-31
2023/01/05 06:58:29;;;;;;;6.13;2.75;;;13.20;99.90;;;;;;4592682;19;20033;-30
2023/01/05 07:00:00;;;;;;;3.65;2.03;;;13.20;99.90;;;;;;4592701;19;20007;-31
2023/01/05 07:01:31;;;;;;;3.53;1.60;;;13.50;99.90;;;;;;4593590;19;20002;-35
2023/01/05 07:03:02;;;;;;;4.40;1.35;;;13.30;99.90;;;;;;4592881;19;20042;-35
2023/01/05 07:04:34;;;;;;;2.07;0.87;;;13.20;99.90;;;;;;4590611;19;20015;-29
2023/01/05 07:06:05;;;;;;;1.92;0.98;;;13.00;99.90;;;;;;4591042;19;20018;-31
2023/01/05 07:07:37;;;;;;;2.00;1.10;;;13.00;99.90;;;;;;4594054;19;20328;-32
2023/01/05 07:09:08;;;;;;;5.68;2.15;;;13.10;99.90;;;;;;4591173;19;20006;-30
2023/01/05 07:10:39;;;;;;;3.90;1.15;;;13.10;99.90;;;;;;4592178;19;20020;-33
2023/01/05 07:12:10;;;;;;;4.57;1.95;;;13.10;99.90;;;;;;4592268;19;20014;-32
2023/01/05 07:13:45;;;;;;;3.70;1.55;;;13.10;99.90;;;;;;4592081;19;20069;-34
2023/01/05 07:15:16;;;;;;;5.27;2.23;;;13.10;99.90;;;;;;4590755;19;20015;-29
2023/01/05 07:16:47;;;;;;;5.40;2.42;;;13.10;99.90;;;;;;4591616;19;20140;-32
2023/01/05 07:18:18;;;;;;;4.70;1.83;;;13.10;99.90;;;;;;4592953;19;20014;-29
2023/01/05 07:19:49;;;;;;;4.45;1.35;;;13.00;99.90;;;;;;4591787;19;20492;-34
2023/01/05 07:21:21;;;;;;;10.50;4.15;;;12.90;99.90;;;;;;4592210;19;20014;-33
2023/01/05 07:22:52;;;;;;;6.93;3.50;;;12.90;99.90;;;;;;4593150;19;20010;-32
2023/01/05 07:24:23;;;;;;;3.55;1.75;;;13.00;99.90;;;;;;4591736;19;20006;-30
2023/01/05 07:25:54;;;;;;;4.55;2.08;;;13.00;99.90;;;;;;4590479;19;20022;-36
2023/01/05 07:27:26;;;;;;;6.93;2.90;;;12.80;99.90;;;;;;4591273;19;20010;-29
2023/01/05 07:28:57;;;;;;;4.88;1.98;;;12.90;99.90;;;;;;4589983;19;20006;-30
2023/01/05 07:30:28;;;;;;;;;;;12.90;99.90;;;;;;4592485;19;20011;-29
2023/01/05 07:32:00;;;;;;;5.87;2.70;;;12.90;99.90;;;;;;4591690;19;20332;-28
2023/01/05 07:33:31;;;;;;;5.90;2.78;;;12.90;99.90;;;;;;4594037;19;20349;-28
2023/01/05 07:35:02;;;;;;;7.80;3.38;;;12.90;99.90;;;;;;4590926;19;20051;-33
2023/01/05 07:36:34;;;;;;;7.70;2.42;;;12.90;99.90;;;;;;4590327;19;20018;-31
2023/01/05 07:38:05;;;;;;;6.78;2.45;;;13.00;99.90;;;;;;4592003;19;20018;-34
2023/01/05 07:39:36;;;;;;;5.97;2.53;;;13.00;99.90;;;;;;4592167;19;20009;-30
2023/01/05 07:41:07;;;;;;;5.45;2.30;;;13.00;99.90;;;;;;4592038;19;20014;-29
2023/01/05 07:42:39;;;;;;;4.88;1.90;;;13.20;99.90;;;;;;4591817;19;20014;-30
2023/01/05 07:44:10;;;;;;;5.75;1.92;;;13.30;99.90;;;;;;4588897;19;20094;-32
2023/01/05 07:45:42;;;;;;;6.47;3.53;;;13.30;99.90;;;;;;4589901;19;20073;-30
2023/01/05 07:47:13;;;;;;;10.43;5.70;;;13.30;99.90;;;;;;4592071;19;20014;-29
2023/01/05 07:48:45;;;;;;;9.13;5.63;;;13.20;99.90;;;;;;4591418;19;20337;-31
2023/01/05 07:50:16;;;;;;;12.10;8.43;;;13.10;99.90;;;;;;4588994;19;20010;-30
2023/01/05 07:51:47;;;;;;;9.65;6.00;;;13.10;99.90;;;;;;4591004;19;20002;-30
2023/01/05 07:53:18;;;;;;;6.53;2.85;;;13.00;99.90;;;;;;4593231;19;20036;-29
2023/01/05 07:54:49;;;;;;;4.03;1.90;;;13.00;99.90;;;;;;4591397;19;20014;-30
2023/01/05 07:56:20;;;;;;;4.30;1.50;;;13.00;99.90;;;;;;4590110;19;20502;-34
2023/01/05 07:57:52;;;;;;;4.43;2.13;;;13.10;99.90;;;;;;4591011;19;20002;-31
2023/01/05 07:59:24;;;;;;;4.78;1.73;;;13.00;99.90;;;;;;4590257;19;20007;-31
2023/01/05 08:00:55;;;;;;;4.82;2.17;;;13.10;99.90;;;;;;4590673;19;20018;-28
2023/01/05 08:02:26;;;;;;;4.90;2.15;;;13.10;99.90;;;;;;4590031;19;20466;-32
2023/01/05 08:03:58;;;;;;;6.27;2.90;;;13.10;99.90;;;;;;4590178;19;20489;-39
2023/01/05 08:05:33;;;;;;;4.75;3.13;;;13.20;99.90;;;;;;4589000;19;20014;-30
2023/01/05 08:07:08;;;;;;;5.80;2.80;;;13.20;99.90;;;;;;4591566;19;20011;-29
2023/01/05 08:08:40;;;;;;;6.00;2.50;;;13.20;99.90;;;;;;4590876;19;20007;-29
2023/01/05 08:10:29;;;;;;;5.63;2.00;;;13.20;99.90;;;;;;4589738;19;20018;-32
2023/01/05 08:12:19;;;;;;;4.00;1.80;;;13.20;99.90;;;;;;4590548;19;20045;-30
2023/01/05 08:13:59;;;;;;;4.13;1.93;;;13.30;99.90;;;;;;4590721;19;20015;-34
2023/01/05 08:15:30;;;;;;;7.67;2.03;;;13.30;99.90;;;;;;4590022;19;20037;-31
2023/01/05 08:17:01;;;;;;;6.05;3.58;;;13.30;99.90;;;;;;4591063;19;20010;-33
2023/01/05 08:18:33;;;;;;;8.48;4.03;;;13.30;99.90;;;;;;4591614;19;20073;-35
2023/01/05 08:20:04;;;;;;;7.50;2.50;;;13.20;99.90;;;;;;4589286;19;20015;-34
2023/01/05 08:21:36;;;;;;;7.43;2.77;;;13.20;99.90;;;;;;4590108;19;20040;-32
2023/01/05 08:23:07;;;;;;;8.55;2.42;;;13.20;99.90;;;;;;4590583;19;20014;-30
2023/01/05 08:24:38;;;;;;;5.20;2.22;;;13.20;99.90;;;;;;4590514;19;20555;-33
2023/01/05 08:26:11;;;;;;;6.25;2.22;;;13.20;99.90;;;;;;4590907;19;20022;-28
2023/01/05 08:27:42;;;;;;;4.10;1.83;;;13.20;99.90;;;;;;4591764;19;20014;-29
2023/01/05 08:29:13;;;;;;;5.50;1.95;;;13.20;99.90;;;;;;4589999;19;20014;-34
2023/01/05 08:30:46;;;;;;;7.22;2.33;;;13.20;99.90;;;;;;4589788;19;20401;-29
2023/01/05 08:32:17;;;;;;;4.73;2.07;;;13.10;99.90;;;;;;4589343;19;20006;-30
2023/01/05 08:33:48;;;;;;;6.47;2.28;;;13.10;99.90;;;;;;4592022;19;20616;-34
2023/01/05 08:35:20;;;;;;;;;;;13.10;99.90;;;;;;4590360;19;20015;-31
2023/01/05 08:36:51;;;;;;;6.60;2.03;;;13.20;99.90;;;;;;4589875;19;20228;-29